createdAt,value
2022-08-10T00:13:17.616Z,5.33
2022-08-10T00:28:22.681Z,5.72
2022-08-10T00:43:27.747Z,6.05
2022-08-10T00:58:32.877Z,5.80
2022-08-10T01:13:40.938Z,5.15
2022-08-10T01:28:54.854Z,4.67
2022-08-10T01:44:12.215Z,5.80
2022-08-10T01:59:26.182Z,5.83
2022-08-10T02:14:34.649Z,5.50
2022-08-10T02:29:42.647Z,6.73
2022-08-10T02:45:13.613Z,5.40
2022-08-10T03:00:11.001Z,5.67
2022-08-10T03:15:18.712Z,6.62
2022-08-10T03:30:32.430Z,5.05
2022-08-10T03:45:49.475Z,6.05
2022-08-10T04:00:39.780Z,5.95
2022-08-10T04:15:44.771Z,6.22
2022-08-10T04:30:52.978Z,7.75
2022-08-10T04:45:57.941Z,6.47
2022-08-10T05:01:04.482Z,8.03
2022-08-10T05:16:09.472Z,8.30
2022-08-10T05:31:23.484Z,7.83
2022-08-10T05:46:22.907Z,8.45
2022-08-10T06:01:29.398Z,8.40
2022-08-10T06:16:34.974Z,7.90
2022-08-10T06:31:48.343Z,7.00
2022-08-10T06:46:53.842Z,7.30
2022-08-10T07:02:07.440Z,6.73
2022-08-10T07:17:16.656Z,5.55
2022-08-10T07:32:24.698Z,3.80
2022-08-10T07:47:52.795Z,2.70
2022-08-10T08:02:54.877Z,2.45
2022-08-10T08:18:02.755Z,2.77
2022-08-10T08:33:10.428Z,3.17
2022-08-10T08:48:23.134Z,2.67
2022-08-10T09:03:46.243Z,3.63
2022-08-10T09:19:05.844Z,4.00
2022-08-10T09:36:24.604Z,2.80
2022-08-10T09:49:54.574Z,1.90
2022-08-10T10:04:57.907Z,1.83
2022-08-10T10:20:08.691Z,1.90
2022-08-10T10:35:16.848Z,2.77
2022-08-10T10:50:24.911Z,2.30
2022-08-10T11:05:38.424Z,1.43
2022-08-10T11:20:54.737Z,1.27
2022-08-10T11:36:05.875Z,1.40
2022-08-10T11:51:15.015Z,1.17
2022-08-10T12:06:39.549Z,1.30
2022-08-10T12:21:40.768Z,1.40
2022-08-10T12:36:51.451Z,1.30
2022-08-10T12:52:02.161Z,0.90
2022-08-10T13:07:08.984Z,0.87
2022-08-10T13:22:16.815Z,0.70
2022-08-10T13:37:24.784Z,0.83
2022-08-10T13:52:30.598Z,1.00
2022-08-10T14:07:53.508Z,1.10
2022-08-10T14:22:48.074Z,1.50
2022-08-10T14:37:57.616Z,1.10
2022-08-10T14:53:09.709Z,1.07
2022-08-10T15:08:17.395Z,1.37
2022-08-10T15:23:29.979Z,1.57
2022-08-10T15:38:45.077Z,1.63
2022-08-10T15:53:55.330Z,1.27
2022-08-10T16:10:23.041Z,1.60
2022-08-10T16:24:16.309Z,1.40
2022-08-10T16:39:58.201Z,2.33
2022-08-10T16:54:38.329Z,2.33
2022-08-10T17:09:51.434Z,1.67
2022-08-10T17:25:02.442Z,1.73
2022-08-10T17:40:10.552Z,3.43
2022-08-10T17:55:17.656Z,4.17
2022-08-10T18:10:26.736Z,2.40
2022-08-10T18:25:37.243Z,3.30
2022-08-10T18:40:45.235Z,2.70
2022-08-10T18:56:10.251Z,2.40
2022-08-10T19:11:31.786Z,2.25
2022-08-10T19:26:54.144Z,3.17
2022-08-10T19:42:11.207Z,3.55
2022-08-10T19:57:20.933Z,6.28
2022-08-10T20:12:56.405Z,4.60
2022-08-10T20:28:21.228Z,4.15
2022-08-10T20:43:29.281Z,4.47
2022-08-10T20:58:55.204Z,4.03
2022-08-10T21:14:35.596Z,4.65
2022-08-10T21:29:55.844Z,6.90
2022-08-10T21:45:58.175Z,6.55
2022-08-10T22:01:11.354Z,6.92
2022-08-10T22:16:48.018Z,5.60
2022-08-10T22:32:35.050Z,5.65
2022-08-10T22:47:58.266Z,5.30
2022-08-10T23:03:22.088Z,5.12
2022-08-10T23:18:51.418Z,5.47
2022-08-10T23:33:59.236Z,5.20
2022-08-10T23:49:06.115Z,5.83
